Bighill, Kentucky
Current Conditions -  °F | °C
As of 7:35 AM on Monday 24 Nov 2014 (Local Time) from KI39 Reporting Station
Overcast Overcast  
Wind Chill: 59°   Ceiling: 4700
Heat Index: 59°   Visibility: 10mi
Dew Point: 52°   Wind: 17mph
Humidity: 77%   Direction: 190°S
Pressure: 29.47"   Gusts: 25mph
Location:  37.55°N, 84.21°W
Report Text: KI39 241235Z AUTO 19015G22KT 10SM SCT031 SCT041 OVC047 15/11 A2947 RMK AO2
Loading
Personal Weather Stations






























Interactive Weather Map New forecast layout! Learn more

10-Day Weather Forecast

Advertisements
Track Severe Weather on mobile